sensor_id;sensor_type;location;lat;lon;timestamp;P1;durP1;ratioP1;P2;durP2;ratioP2
15536;SDS011;7870;52.448;13.270;2022-08-20T00:00:11;22.25;;;20.15;;
15536;SDS011;7870;52.448;13.270;2022-08-20T00:02:45;23.55;;;21.35;;
15536;SDS011;7870;52.448;13.270;2022-08-20T00:05:12;23.73;;;21.55;;
15536;SDS011;7870;52.448;13.270;2022-08-20T00:07:39;22.58;;;20.48;;
15536;SDS011;7870;52.448;13.270;2022-08-20T00:10:06;20.50;;;18.73;;
15536;SDS011;7870;52.448;13.270;2022-08-20T00:12:34;19.38;;;17.63;;
15536;SDS011;7870;52.448;13.270;2022-08-20T00:15:04;19.52;;;17.63;;
15536;SDS011;7870;52.448;13.270;2022-08-20T00:17:30;19.27;;;17.67;;
15536;SDS011;7870;52.448;13.270;2022-08-20T00:20:03;18.73;;;17.02;;
15536;SDS011;7870;52.448;13.270;2022-08-20T00:22:29;19.00;;;17.20;;
15536;SDS011;7870;52.448;13.270;2022-08-20T00:24:56;18.42;;;16.88;;
15536;SDS011;7870;52.448;13.270;2022-08-20T00:27:22;18.70;;;17.00;;
15536;SDS011;7870;52.448;13.270;2022-08-20T00:29:49;19.80;;;18.15;;
15536;SDS011;7870;52.448;13.270;2022-08-20T00:32:16;18.23;;;16.73;;
15536;SDS011;7870;52.448;13.270;2022-08-20T00:34:42;19.45;;;17.65;;
15536;SDS011;7870;52.448;13.270;2022-08-20T00:37:09;17.27;;;15.77;;
15536;SDS011;7870;52.448;13.270;2022-08-20T00:39:36;17.77;;;16.10;;
15536;SDS011;7870;52.448;13.270;2022-08-20T00:42:03;18.05;;;16.60;;
15536;SDS011;7870;52.448;13.270;2022-08-20T00:44:30;17.98;;;16.38;;
15536;SDS011;7870;52.448;13.270;2022-08-20T00:46:56;17.42;;;15.93;;
15536;SDS011;7870;52.448;13.270;2022-08-20T00:49:24;17.92;;;16.23;;
15536;SDS011;7870;52.448;13.270;2022-08-20T00:52:03;17.05;;;15.48;;
15536;SDS011;7870;52.448;13.270;2022-08-20T00:54:40;15.65;;;14.23;;
15536;SDS011;7870;52.448;13.270;2022-08-20T00:57:11;16.98;;;15.57;;
15536;SDS011;7870;52.448;13.270;2022-08-20T00:59:39;15.75;;;14.45;;
15536;SDS011;7870;52.448;13.270;2022-08-20T01:02:08;15.27;;;13.93;;
15536;SDS011;7870;52.448;13.270;2022-08-20T01:04:35;15.73;;;14.52;;
15536;SDS011;7870;52.448;13.270;2022-08-20T01:07:02;18.33;;;16.83;;
15536;SDS011;7870;52.448;13.270;2022-08-20T01:09:31;17.02;;;15.52;;
15536;SDS011;7870;52.448;13.270;2022-08-20T01:12:18;15.52;;;14.23;;
15536;SDS011;7870;52.448;13.270;2022-08-20T01:14:45;18.00;;;16.40;;
15536;SDS011;7870;52.448;13.270;2022-08-20T01:17:13;16.33;;;14.73;;
15536;SDS011;7870;52.448;13.270;2022-08-20T01:19:44;16.25;;;14.75;;
15536;SDS011;7870;52.448;13.270;2022-08-20T01:22:13;16.33;;;14.95;;
15536;SDS011;7870;52.448;13.270;2022-08-20T01:25:07;16.77;;;15.38;;
15536;SDS011;7870;52.448;13.270;2022-08-20T01:27:35;16.52;;;15.23;;
15536;SDS011;7870;52.448;13.270;2022-08-20T01:30:08;15.00;;;13.80;;
15536;SDS011;7870;52.448;13.270;2022-08-20T01:32:34;15.73;;;14.43;;
15536;SDS011;7870;52.448;13.270;2022-08-20T01:35:01;16.73;;;15.32;;
15536;SDS011;7870;52.448;13.270;2022-08-20T01:37:27;16.13;;;14.73;;
15536;SDS011;7870;52.448;13.270;2022-08-20T01:39:57;15.63;;;14.35;;
15536;SDS011;7870;52.448;13.270;2022-08-20T01:42:26;14.65;;;13.45;;
15536;SDS011;7870;52.448;13.270;2022-08-20T01:47:26;19.58;;;17.88;;
15536;SDS011;7870;52.448;13.270;2022-08-20T01:50:00;15.32;;;14.13;;
15536;SDS011;7870;52.448;13.270;2022-08-20T01:52:33;19.15;;;17.55;;
15536;SDS011;7870;52.448;13.270;2022-08-20T01:55:02;21.92;;;19.95;;
15536;SDS011;7870;52.448;13.270;2022-08-20T01:57:29;18.83;;;17.23;;
15536;SDS011;7870;52.448;13.270;2022-08-20T01:59:55;21.40;;;19.50;;
15536;SDS011;7870;52.448;13.270;2022-08-20T02:02:21;18.42;;;16.83;;
15536;SDS011;7870;52.448;13.270;2022-08-20T02:04:49;22.70;;;20.80;;
15536;SDS011;7870;52.448;13.270;2022-08-20T02:07:18;21.83;;;19.83;;
15536;SDS011;7870;52.448;13.270;2022-08-20T02:09:45;24.38;;;22.08;;
15536;SDS011;7870;52.448;13.270;2022-08-20T02:12:12;25.58;;;23.08;;
15536;SDS011;7870;52.448;13.270;2022-08-20T02:14:43;22.10;;;20.10;;
15536;SDS011;7870;52.448;13.270;2022-08-20T02:17:11;25.73;;;23.33;;
15536;SDS011;7870;52.448;13.270;2022-08-20T02:19:39;26.83;;;24.40;;
15536;SDS011;7870;52.448;13.270;2022-08-20T02:22:17;25.52;;;23.00;;
15536;SDS011;7870;52.448;13.270;2022-08-20T02:24:46;27.20;;;24.53;;
15536;SDS011;7870;52.448;13.270;2022-08-20T02:27:13;26.77;;;24.33;;
15536;SDS011;7870;52.448;13.270;2022-08-20T02:29:40;27.55;;;24.85;;
15536;SDS011;7870;52.448;13.270;2022-08-20T02:32:06;28.27;;;25.58;;
15536;SDS011;7870;52.448;13.270;2022-08-20T02:34:53;28.95;;;26.05;;
15536;SDS011;7870;52.448;13.270;2022-08-20T02:37:20;28.20;;;25.40;;
15536;SDS011;7870;52.448;13.270;2022-08-20T02:39:46;28.60;;;25.70;;
15536;SDS011;7870;52.448;13.270;2022-08-20T02:42:13;30.67;;;27.65;;
15536;SDS011;7870;52.448;13.270;2022-08-20T02:44:39;29.65;;;26.73;;
15536;SDS011;7870;52.448;13.270;2022-08-20T02:47:06;31.15;;;27.95;;
15536;SDS011;7870;52.448;13.270;2022-08-20T02:49:33;31.58;;;28.27;;
15536;SDS011;7870;52.448;13.270;2022-08-20T02:52:00;29.15;;;26.25;;
15536;SDS011;7870;52.448;13.270;2022-08-20T02:54:26;30.75;;;27.40;;
15536;SDS011;7870;52.448;13.270;2022-08-20T02:56:54;31.23;;;28.35;;
15536;SDS011;7870;52.448;13.270;2022-08-20T02:59:21;30.85;;;27.95;;
15536;SDS011;7870;52.448;13.270;2022-08-20T03:01:47;31.58;;;28.40;;
15536;SDS011;7870;52.448;13.270;2022-08-20T03:04:25;29.10;;;26.20;;
15536;SDS011;7870;52.448;13.270;2022-08-20T03:06:52;32.78;;;29.33;;
15536;SDS011;7870;52.448;13.270;2022-08-20T03:09:18;33.38;;;30.02;;
15536;SDS011;7870;52.448;13.270;2022-08-20T03:11:45;28.42;;;25.77;;
15536;SDS011;7870;52.448;13.270;2022-08-20T03:14:11;33.30;;;29.88;;
15536;SDS011;7870;52.448;13.270;2022-08-20T03:16:38;35.33;;;31.58;;
15536;SDS011;7870;52.448;13.270;2022-08-20T03:19:04;40.00;;;35.30;;
15536;SDS011;7870;52.448;13.270;2022-08-20T03:21:30;30.08;;;27.17;;
15536;SDS011;7870;52.448;13.270;2022-08-20T03:23:57;31.65;;;28.50;;
15536;SDS011;7870;52.448;13.270;2022-08-20T03:26:24;36.15;;;31.25;;
15536;SDS011;7870;52.448;13.270;2022-08-20T03:28:50;36.92;;;33.15;;
15536;SDS011;7870;52.448;13.270;2022-08-20T03:31:17;38.33;;;34.15;;
15536;SDS011;7870;52.448;13.270;2022-08-20T03:33:44;37.50;;;33.42;;
15536;SDS011;7870;52.448;13.270;2022-08-20T03:36:19;37.97;;;33.72;;
15536;SDS011;7870;52.448;13.270;2022-08-20T03:38:54;34.35;;;30.83;;
15536;SDS011;7870;52.448;13.270;2022-08-20T03:41:21;43.28;;;37.42;;
15536;SDS011;7870;52.448;13.270;2022-08-20T03:43:47;41.78;;;37.05;;
15536;SDS011;7870;52.448;13.270;2022-08-20T03:46:14;44.67;;;38.10;;
15536;SDS011;7870;52.448;13.270;2022-08-20T03:48:52;47.45;;;38.88;;
15536;SDS011;7870;52.448;13.270;2022-08-20T03:51:25;38.53;;;33.85;;
15536;SDS011;7870;52.448;13.270;2022-08-20T03:53:52;43.67;;;37.05;;
15536;SDS011;7870;52.448;13.270;2022-08-20T03:56:18;43.53;;;34.72;;
15536;SDS011;7870;52.448;13.270;2022-08-20T03:58:45;36.80;;;32.85;;
15536;SDS011;7870;52.448;13.270;2022-08-20T04:01:11;41.30;;;37.03;;
15536;SDS011;7870;52.448;13.270;2022-08-20T04:03:58;43.28;;;38.22;;
15536;SDS011;7870;52.448;13.270;2022-08-20T04:06:25;42.40;;;37.58;;
15536;SDS011;7870;52.448;13.270;2022-08-20T04:08:54;46.20;;;39.25;;
15536;SDS011;7870;52.448;13.270;2022-08-20T04:11:21;45.50;;;39.38;;
15536;SDS011;7870;52.448;13.270;2022-08-20T04:13:47;37.05;;;33.15;;
15536;SDS011;7870;52.448;13.270;2022-08-20T04:16:14;50.42;;;41.38;;
15536;SDS011;7870;52.448;13.270;2022-08-20T04:18:41;48.33;;;39.28;;
15536;SDS011;7870;52.448;13.270;2022-08-20T04:21:27;46.13;;;40.45;;
15536;SDS011;7870;52.448;13.270;2022-08-20T04:26:24;42.30;;;36.35;;
15536;SDS011;7870;52.448;13.270;2022-08-20T04:28:51;41.28;;;36.88;;
15536;SDS011;7870;52.448;13.270;2022-08-20T04:31:18;45.50;;;38.85;;
15536;SDS011;7870;52.448;13.270;2022-08-20T04:33:50;44.25;;;39.25;;
15536;SDS011;7870;52.448;13.270;2022-08-20T04:36:17;42.30;;;37.47;;
15536;SDS011;7870;52.448;13.270;2022-08-20T04:38:43;44.30;;;39.13;;
15536;SDS011;7870;52.448;13.270;2022-08-20T04:41:16;37.60;;;33.30;;
15536;SDS011;7870;52.448;13.270;2022-08-20T04:43:48;42.58;;;37.30;;
15536;SDS011;7870;52.448;13.270;2022-08-20T04:46:15;37.38;;;33.30;;
15536;SDS011;7870;52.448;13.270;2022-08-20T04:48:42;42.15;;;37.58;;
15536;SDS011;7870;52.448;13.270;2022-08-20T04:51:16;39.67;;;35.25;;
15536;SDS011;7870;52.448;13.270;2022-08-20T04:53:43;33.10;;;29.67;;
15536;SDS011;7870;52.448;13.270;2022-08-20T04:56:20;34.58;;;30.95;;
15536;SDS011;7870;52.448;13.270;2022-08-20T04:58:49;38.75;;;34.80;;
15536;SDS011;7870;52.448;13.270;2022-08-20T05:01:16;36.35;;;32.78;;
15536;SDS011;7870;52.448;13.270;2022-08-20T05:03:43;38.92;;;34.72;;
15536;SDS011;7870;52.448;13.270;2022-08-20T05:06:11;40.60;;;36.38;;
15536;SDS011;7870;52.448;13.270;2022-08-20T05:08:38;37.67;;;33.70;;
15536;SDS011;7870;52.448;13.270;2022-08-20T05:11:05;41.20;;;36.78;;
15536;SDS011;7870;52.448;13.270;2022-08-20T05:13:52;33.55;;;30.02;;
15536;SDS011;7870;52.448;13.270;2022-08-20T05:16:19;39.80;;;35.50;;
15536;SDS011;7870;52.448;13.270;2022-08-20T05:18:46;40.95;;;36.58;;
15536;SDS011;7870;52.448;13.270;2022-08-20T05:21:18;38.00;;;33.90;;
15536;SDS011;7870;52.448;13.270;2022-08-20T05:23:45;39.83;;;34.92;;
15536;SDS011;7870;52.448;13.270;2022-08-20T05:26:12;39.97;;;35.78;;
15536;SDS011;7870;52.448;13.270;2022-08-20T05:28:40;34.83;;;31.45;;
15536;SDS011;7870;52.448;13.270;2022-08-20T05:31:23;41.05;;;36.38;;
15536;SDS011;7870;52.448;13.270;2022-08-20T05:33:58;39.05;;;34.88;;
15536;SDS011;7870;52.448;13.270;2022-08-20T05:36:25;38.05;;;34.13;;
15536;SDS011;7870;52.448;13.270;2022-08-20T05:38:52;39.05;;;35.10;;
15536;SDS011;7870;52.448;13.270;2022-08-20T05:41:19;34.05;;;30.65;;
15536;SDS011;7870;52.448;13.270;2022-08-20T05:43:58;35.10;;;31.48;;
15536;SDS011;7870;52.448;13.270;2022-08-20T05:46:27;34.30;;;30.98;;
15536;SDS011;7870;52.448;13.270;2022-08-20T05:48:54;37.47;;;33.92;;
15536;SDS011;7870;52.448;13.270;2022-08-20T05:51:24;33.67;;;30.50;;
15536;SDS011;7870;52.448;13.270;2022-08-20T05:53:51;34.67;;;31.13;;
15536;SDS011;7870;52.448;13.270;2022-08-20T05:56:17;33.75;;;30.55;;
15536;SDS011;7870;52.448;13.270;2022-08-20T05:58:46;33.28;;;30.08;;
15536;SDS011;7870;52.448;13.270;2022-08-20T06:01:17;35.60;;;32.20;;
15536;SDS011;7870;52.448;13.270;2022-08-20T06:03:43;33.22;;;29.92;;
15536;SDS011;7870;52.448;13.270;2022-08-20T06:06:29;35.17;;;31.63;;
15536;SDS011;7870;52.448;13.270;2022-08-20T06:09:12;34.70;;;31.10;;
15536;SDS011;7870;52.448;13.270;2022-08-20T06:11:39;33.33;;;29.92;;
15536;SDS011;7870;52.448;13.270;2022-08-20T06:14:05;33.40;;;29.98;;
15536;SDS011;7870;52.448;13.270;2022-08-20T06:16:32;35.35;;;32.00;;
15536;SDS011;7870;52.448;13.270;2022-08-20T06:18:58;31.48;;;28.45;;
15536;SDS011;7870;52.448;13.270;2022-08-20T06:21:28;32.40;;;29.27;;
15536;SDS011;7870;52.448;13.270;2022-08-20T06:23:54;33.90;;;30.73;;
15536;SDS011;7870;52.448;13.270;2022-08-20T06:26:24;35.55;;;31.95;;
15536;SDS011;7870;52.448;13.270;2022-08-20T06:28:56;35.55;;;32.08;;
15536;SDS011;7870;52.448;13.270;2022-08-20T06:31:23;36.90;;;33.30;;
15536;SDS011;7870;52.448;13.270;2022-08-20T06:33:49;33.72;;;30.50;;
15536;SDS011;7870;52.448;13.270;2022-08-20T06:36:15;35.20;;;31.95;;
15536;SDS011;7870;52.448;13.270;2022-08-20T06:38:44;34.15;;;30.55;;
15536;SDS011;7870;52.448;13.270;2022-08-20T06:41:11;36.92;;;33.13;;
15536;SDS011;7870;52.448;13.270;2022-08-20T06:43:38;37.45;;;33.63;;
15536;SDS011;7870;52.448;13.270;2022-08-20T06:46:04;37.22;;;33.47;;
15536;SDS011;7870;52.448;13.270;2022-08-20T06:48:32;35.67;;;32.25;;
15536;SDS011;7870;52.448;13.270;2022-08-20T06:50:58;37.80;;;34.25;;
15536;SDS011;7870;52.448;13.270;2022-08-20T06:53:25;39.58;;;35.78;;
15536;SDS011;7870;52.448;13.270;2022-08-20T06:55:52;33.90;;;30.58;;
15536;SDS011;7870;52.448;13.270;2022-08-20T06:58:19;33.80;;;30.50;;
15536;SDS011;7870;52.448;13.270;2022-08-20T07:01:10;34.60;;;31.30;;
15536;SDS011;7870;52.448;13.270;2022-08-20T07:03:38;36.63;;;33.05;;
15536;SDS011;7870;52.448;13.270;2022-08-20T07:06:20;38.85;;;35.00;;
15536;SDS011;7870;52.448;13.270;2022-08-20T07:08:46;36.78;;;33.00;;
15536;SDS011;7870;52.448;13.270;2022-08-20T07:11:13;32.50;;;29.30;;
15536;SDS011;7870;52.448;13.270;2022-08-20T07:13:39;38.10;;;34.22;;
15536;SDS011;7870;52.448;13.270;2022-08-20T07:16:07;38.17;;;34.22;;
15536;SDS011;7870;52.448;13.270;2022-08-20T07:18:34;43.42;;;39.15;;
15536;SDS011;7870;52.448;13.270;2022-08-20T07:21:00;38.72;;;35.00;;
15536;SDS011;7870;52.448;13.270;2022-08-20T07:23:27;36.03;;;32.20;;
15536;SDS011;7870;52.448;13.270;2022-08-20T07:25:53;39.17;;;35.38;;
15536;SDS011;7870;52.448;13.270;2022-08-20T07:28:22;35.78;;;32.38;;
15536;SDS011;7870;52.448;13.270;2022-08-20T07:30:49;40.15;;;36.10;;
15536;SDS011;7870;52.448;13.270;2022-08-20T07:33:39;39.13;;;35.28;;
15536;SDS011;7870;52.448;13.270;2022-08-20T07:36:12;39.47;;;35.42;;
15536;SDS011;7870;52.448;13.270;2022-08-20T07:38:39;40.63;;;36.50;;
15536;SDS011;7870;52.448;13.270;2022-08-20T07:41:06;40.00;;;36.00;;
15536;SDS011;7870;52.448;13.270;2022-08-20T07:43:34;39.83;;;35.92;;
15536;SDS011;7870;52.448;13.270;2022-08-20T07:46:01;40.63;;;36.65;;
15536;SDS011;7870;52.448;13.270;2022-08-20T07:48:28;38.45;;;34.55;;
15536;SDS011;7870;52.448;13.270;2022-08-20T07:50:58;43.83;;;39.25;;
15536;SDS011;7870;52.448;13.270;2022-08-20T07:53:25;45.50;;;40.55;;
15536;SDS011;7870;52.448;13.270;2022-08-20T07:55:52;43.72;;;39.15;;
15536;SDS011;7870;52.448;13.270;2022-08-20T07:58:24;45.58;;;40.63;;
15536;SDS011;7870;52.448;13.270;2022-08-20T08:00:58;39.20;;;35.35;;
15536;SDS011;7870;52.448;13.270;2022-08-20T08:03:25;42.13;;;37.88;;
15536;SDS011;7870;52.448;13.270;2022-08-20T08:06:13;47.00;;;42.10;;
15536;SDS011;7870;52.448;13.270;2022-08-20T08:08:42;46.90;;;41.92;;
15536;SDS011;7870;52.448;13.270;2022-08-20T08:11:09;45.47;;;40.67;;
15536;SDS011;7870;52.448;13.270;2022-08-20T08:13:38;44.47;;;39.97;;
15536;SDS011;7870;52.448;13.270;2022-08-20T08:16:05;45.63;;;40.83;;
15536;SDS011;7870;52.448;13.270;2022-08-20T08:18:37;40.03;;;36.22;;
15536;SDS011;7870;52.448;13.270;2022-08-20T08:21:05;45.58;;;40.83;;
15536;SDS011;7870;52.448;13.270;2022-08-20T08:23:32;44.67;;;38.75;;
15536;SDS011;7870;52.448;13.270;2022-08-20T08:26:00;43.25;;;38.58;;
15536;SDS011;7870;52.448;13.270;2022-08-20T08:28:26;41.30;;;37.17;;
15536;SDS011;7870;52.448;13.270;2022-08-20T08:30:56;44.97;;;40.50;;
15536;SDS011;7870;52.448;13.270;2022-08-20T08:33:28;45.90;;;41.17;;
15536;SDS011;7870;52.448;13.270;2022-08-20T08:35:57;42.13;;;38.03;;
15536;SDS011;7870;52.448;13.270;2022-08-20T08:38:24;43.47;;;39.15;;
15536;SDS011;7870;52.448;13.270;2022-08-20T08:40:52;44.78;;;39.90;;
15536;SDS011;7870;52.448;13.270;2022-08-20T08:43:25;42.05;;;37.78;;
15536;SDS011;7870;52.448;13.270;2022-08-20T08:45:58;45.05;;;40.33;;
15536;SDS011;7870;52.448;13.270;2022-08-20T08:48:29;44.35;;;40.10;;
15536;SDS011;7870;52.448;13.270;2022-08-20T08:50:57;43.97;;;39.67;;
15536;SDS011;7870;52.448;13.270;2022-08-20T08:53:26;46.08;;;41.28;;
15536;SDS011;7870;52.448;13.270;2022-08-20T08:55:55;42.20;;;38.13;;
15536;SDS011;7870;52.448;13.270;2022-08-20T08:58:22;41.75;;;37.65;;
15536;SDS011;7870;52.448;13.270;2022-08-20T09:00:48;43.20;;;39.22;;
15536;SDS011;7870;52.448;13.270;2022-08-20T09:03:26;43.88;;;39.47;;
15536;SDS011;7870;52.448;13.270;2022-08-20T09:05:56;42.72;;;38.58;;
15536;SDS011;7870;52.448;13.270;2022-08-20T09:08:36;39.72;;;35.95;;
15536;SDS011;7870;52.448;13.270;2022-08-20T09:11:07;41.58;;;37.53;;
15536;SDS011;7870;52.448;13.270;2022-08-20T09:13:35;40.00;;;36.10;;
15536;SDS011;7870;52.448;13.270;2022-08-20T09:16:01;39.20;;;35.72;;
15536;SDS011;7870;52.448;13.270;2022-08-20T09:18:28;34.53;;;31.30;;
15536;SDS011;7870;52.448;13.270;2022-08-20T09:20:54;32.97;;;29.98;;
15536;SDS011;7870;52.448;13.270;2022-08-20T09:23:21;36.78;;;33.22;;
15536;SDS011;7870;52.448;13.270;2022-08-20T09:25:48;34.20;;;30.95;;
15536;SDS011;7870;52.448;13.270;2022-08-20T09:28:14;32.60;;;29.60;;
15536;SDS011;7870;52.448;13.270;2022-08-20T09:30:41;33.47;;;30.23;;
15536;SDS011;7870;52.448;13.270;2022-08-20T09:33:09;31.40;;;28.42;;
15536;SDS011;7870;52.448;13.270;2022-08-20T09:35:36;32.30;;;29.13;;
15536;SDS011;7870;52.448;13.270;2022-08-20T09:38:03;31.40;;;28.50;;
15536;SDS011;7870;52.448;13.270;2022-08-20T09:40:29;28.80;;;26.00;;
15536;SDS011;7870;52.448;13.270;2022-08-20T09:42:56;31.75;;;28.75;;
15536;SDS011;7870;52.448;13.270;2022-08-20T09:45:22;30.05;;;27.25;;
15536;SDS011;7870;52.448;13.270;2022-08-20T09:47:49;26.77;;;24.15;;
15536;SDS011;7870;52.448;13.270;2022-08-20T09:50:26;25.00;;;22.70;;
15536;SDS011;7870;52.448;13.270;2022-08-20T09:52:53;28.17;;;25.33;;
15536;SDS011;7870;52.448;13.270;2022-08-20T09:55:28;28.77;;;26.20;;
15536;SDS011;7870;52.448;13.270;2022-08-20T09:57:56;25.17;;;23.00;;
15536;SDS011;7870;52.448;13.270;2022-08-20T10:00:24;24.83;;;22.23;;
15536;SDS011;7870;52.448;13.270;2022-08-20T10:02:52;21.80;;;19.63;;
15536;SDS011;7870;52.448;13.270;2022-08-20T10:05:18;22.83;;;20.52;;
15536;SDS011;7870;52.448;13.270;2022-08-20T10:07:45;20.48;;;18.58;;
15536;SDS011;7870;52.448;13.270;2022-08-20T10:10:12;22.55;;;20.45;;
15536;SDS011;7870;52.448;13.270;2022-08-20T10:12:40;20.48;;;18.70;;
15536;SDS011;7870;52.448;13.270;2022-08-20T10:15:07;20.10;;;18.25;;
15536;SDS011;7870;52.448;13.270;2022-08-20T10:17:37;20.05;;;18.23;;
15536;SDS011;7870;52.448;13.270;2022-08-20T10:20:04;19.77;;;18.08;;
15536;SDS011;7870;52.448;13.270;2022-08-20T10:22:31;16.75;;;15.15;;
15536;SDS011;7870;52.448;13.270;2022-08-20T10:24:58;18.77;;;17.08;;
15536;SDS011;7870;52.448;13.270;2022-08-20T10:27:24;14.93;;;13.52;;
15536;SDS011;7870;52.448;13.270;2022-08-20T10:29:50;14.35;;;13.05;;
15536;SDS011;7870;52.448;13.270;2022-08-20T10:32:17;13.73;;;12.18;;
15536;SDS011;7870;52.448;13.270;2022-08-20T10:34:46;13.65;;;12.27;;
15536;SDS011;7870;52.448;13.270;2022-08-20T10:37:17;12.05;;;10.95;;
15536;SDS011;7870;52.448;13.270;2022-08-20T10:39:44;12.00;;;10.90;;
15536;SDS011;7870;52.448;13.270;2022-08-20T10:42:11;13.35;;;11.95;;
15536;SDS011;7870;52.448;13.270;2022-08-20T10:44:38;13.85;;;12.65;;
15536;SDS011;7870;52.448;13.270;2022-08-20T10:49:44;10.63;;;9.63;;
15536;SDS011;7870;52.448;13.270;2022-08-20T10:52:10;11.05;;;9.98;;
15536;SDS011;7870;52.448;13.270;2022-08-20T10:54:37;10.68;;;9.65;;
15536;SDS011;7870;52.448;13.270;2022-08-20T10:57:12;12.93;;;11.00;;
15536;SDS011;7870;52.448;13.270;2022-08-20T10:59:39;11.15;;;10.15;;
15536;SDS011;7870;52.448;13.270;2022-08-20T11:02:06;10.20;;;9.15;;
15536;SDS011;7870;52.448;13.270;2022-08-20T11:04:33;10.35;;;9.30;;
15536;SDS011;7870;52.448;13.270;2022-08-20T11:07:10;15.63;;;9.93;;
15536;SDS011;7870;52.448;13.270;2022-08-20T11:09:36;10.95;;;9.35;;
15536;SDS011;7870;52.448;13.270;2022-08-20T11:12:03;10.88;;;9.75;;
15536;SDS011;7870;52.448;13.270;2022-08-20T11:14:29;9.93;;;8.90;;
15536;SDS011;7870;52.448;13.270;2022-08-20T11:16:56;11.15;;;9.70;;
15536;SDS011;7870;52.448;13.270;2022-08-20T11:19:23;22.48;;;20.20;;
15536;SDS011;7870;52.448;13.270;2022-08-20T11:21:49;10.77;;;9.32;;
15536;SDS011;7870;52.448;13.270;2022-08-20T11:24:15;9.55;;;8.63;;
15536;SDS011;7870;52.448;13.270;2022-08-20T11:26:42;10.05;;;9.02;;
15536;SDS011;7870;52.448;13.270;2022-08-20T11:29:09;10.68;;;8.55;;
15536;SDS011;7870;52.448;13.270;2022-08-20T11:31:36;11.70;;;10.60;;
15536;SDS011;7870;52.448;13.270;2022-08-20T11:34:02;10.55;;;9.43;;
15536;SDS011;7870;52.448;13.270;2022-08-20T11:36:28;9.23;;;8.43;;
15536;SDS011;7870;52.448;13.270;2022-08-20T11:38:55;7.85;;;7.13;;
15536;SDS011;7870;52.448;13.270;2022-08-20T11:41:21;8.52;;;6.47;;
15536;SDS011;7870;52.448;13.270;2022-08-20T11:43:48;7.68;;;6.90;;
15536;SDS011;7870;52.448;13.270;2022-08-20T11:46:34;8.95;;;7.05;;
15536;SDS011;7870;52.448;13.270;2022-08-20T11:49:01;7.10;;;6.40;;
15536;SDS011;7870;52.448;13.270;2022-08-20T11:51:28;6.90;;;6.20;;
15536;SDS011;7870;52.448;13.270;2022-08-20T11:53:54;6.32;;;5.72;;
15536;SDS011;7870;52.448;13.270;2022-08-20T11:56:20;7.65;;;6.65;;
15536;SDS011;7870;52.448;13.270;2022-08-20T11:58:47;6.78;;;5.75;;
15536;SDS011;7870;52.448;13.270;2022-08-20T12:01:13;6.45;;;5.75;;
15536;SDS011;7870;52.448;13.270;2022-08-20T12:03:40;9.00;;;5.07;;
15536;SDS011;7870;52.448;13.270;2022-08-20T12:06:07;6.45;;;5.40;;
15536;SDS011;7870;52.448;13.270;2022-08-20T12:08:33;7.40;;;5.25;;
15536;SDS011;7870;52.448;13.270;2022-08-20T12:11:00;5.82;;;5.10;;
15536;SDS011;7870;52.448;13.270;2022-08-20T12:13:28;8.05;;;5.80;;
15536;SDS011;7870;52.448;13.270;2022-08-20T12:16:14;7.53;;;5.85;;
15536;SDS011;7870;52.448;13.270;2022-08-20T12:18:40;6.43;;;5.05;;
15536;SDS011;7870;52.448;13.270;2022-08-20T12:21:09;7.10;;;5.68;;
15536;SDS011;7870;52.448;13.270;2022-08-20T12:23:36;6.40;;;5.30;;
15536;SDS011;7870;52.448;13.270;2022-08-20T12:26:02;7.07;;;5.10;;
15536;SDS011;7870;52.448;13.270;2022-08-20T12:28:29;7.68;;;5.25;;
15536;SDS011;7870;52.448;13.270;2022-08-20T12:30:56;5.95;;;4.65;;
15536;SDS011;7870;52.448;13.270;2022-08-20T12:33:23;6.18;;;4.95;;
15536;SDS011;7870;52.448;13.270;2022-08-20T12:35:49;7.30;;;5.38;;
15536;SDS011;7870;52.448;13.270;2022-08-20T12:38:15;7.22;;;6.13;;
15536;SDS011;7870;52.448;13.270;2022-08-20T12:40:42;10.07;;;8.07;;
15536;SDS011;7870;52.448;13.270;2022-08-20T12:43:08;7.10;;;5.80;;
15536;SDS011;7870;52.448;13.270;2022-08-20T12:45:35;5.97;;;5.40;;
15536;SDS011;7870;52.448;13.270;2022-08-20T12:48:03;7.65;;;5.40;;
15536;SDS011;7870;52.448;13.270;2022-08-20T12:50:30;6.05;;;5.45;;
15536;SDS011;7870;52.448;13.270;2022-08-20T12:52:57;9.00;;;5.85;;
15536;SDS011;7870;52.448;13.270;2022-08-20T12:55:24;6.35;;;5.45;;
15536;SDS011;7870;52.448;13.270;2022-08-20T12:57:52;5.75;;;5.18;;
15536;SDS011;7870;52.448;13.270;2022-08-20T13:00:20;7.80;;;6.40;;
15536;SDS011;7870;52.448;13.270;2022-08-20T13:02:49;7.15;;;6.55;;
15536;SDS011;7870;52.448;13.270;2022-08-20T13:05:16;7.93;;;6.88;;
15536;SDS011;7870;52.448;13.270;2022-08-20T13:07:43;9.30;;;7.10;;
15536;SDS011;7870;52.448;13.270;2022-08-20T13:10:11;8.77;;;6.82;;
15536;SDS011;7870;52.448;13.270;2022-08-20T13:12:37;7.22;;;6.63;;
15536;SDS011;7870;52.448;13.270;2022-08-20T13:15:05;8.07;;;6.93;;
15536;SDS011;7870;52.448;13.270;2022-08-20T13:17:31;8.55;;;6.70;;
15536;SDS011;7870;52.448;13.270;2022-08-20T13:20:09;10.15;;;7.53;;
15536;SDS011;7870;52.448;13.270;2022-08-20T13:22:37;7.63;;;6.95;;
15536;SDS011;7870;52.448;13.270;2022-08-20T13:25:04;9.80;;;7.00;;
15536;SDS011;7870;52.448;13.270;2022-08-20T13:27:30;8.82;;;7.68;;
15536;SDS011;7870;52.448;13.270;2022-08-20T13:29:57;8.68;;;7.78;;
15536;SDS011;7870;52.448;13.270;2022-08-20T13:32:24;11.07;;;9.02;;
15536;SDS011;7870;52.448;13.270;2022-08-20T13:34:51;10.40;;;9.40;;
15536;SDS011;7870;52.448;13.270;2022-08-20T13:37:18;11.25;;;10.05;;
15536;SDS011;7870;52.448;13.270;2022-08-20T13:39:50;10.18;;;9.27;;
15536;SDS011;7870;52.448;13.270;2022-08-20T13:42:17;12.18;;;10.70;;
15536;SDS011;7870;52.448;13.270;2022-08-20T13:44:43;11.43;;;10.43;;
15536;SDS011;7870;52.448;13.270;2022-08-20T13:49:40;13.82;;;12.50;;
15536;SDS011;7870;52.448;13.270;2022-08-20T13:52:06;12.85;;;11.70;;
15536;SDS011;7870;52.448;13.270;2022-08-20T13:54:33;14.48;;;13.02;;
15536;SDS011;7870;52.448;13.270;2022-08-20T13:57:07;14.85;;;13.45;;
15536;SDS011;7870;52.448;13.270;2022-08-20T13:59:35;14.23;;;12.60;;
15536;SDS011;7870;52.448;13.270;2022-08-20T14:02:01;14.93;;;13.52;;
15536;SDS011;7870;52.448;13.270;2022-08-20T14:04:32;14.27;;;13.02;;
15536;SDS011;7870;52.448;13.270;2022-08-20T14:09:39;18.45;;;16.63;;
15536;SDS011;7870;52.448;13.270;2022-08-20T14:12:06;17.83;;;16.10;;
15536;SDS011;7870;52.448;13.270;2022-08-20T14:14:33;17.92;;;16.27;;
15536;SDS011;7870;52.448;13.270;2022-08-20T14:17:10;16.15;;;14.63;;
15536;SDS011;7870;52.448;13.270;2022-08-20T14:19:40;16.13;;;14.68;;
15536;SDS011;7870;52.448;13.270;2022-08-20T14:22:06;17.65;;;16.02;;
15536;SDS011;7870;52.448;13.270;2022-08-20T14:24:33;16.98;;;15.38;;
15536;SDS011;7870;52.448;13.270;2022-08-20T14:27:02;19.55;;;17.77;;
15536;SDS011;7870;52.448;13.270;2022-08-20T14:29:30;18.75;;;16.95;;
15536;SDS011;7870;52.448;13.270;2022-08-20T14:32:01;17.77;;;16.27;;
15536;SDS011;7870;52.448;13.270;2022-08-20T14:34:28;19.20;;;17.40;;
15536;SDS011;7870;52.448;13.270;2022-08-20T14:36:54;17.65;;;16.05;;
15536;SDS011;7870;52.448;13.270;2022-08-20T14:39:24;21.00;;;19.25;;
15536;SDS011;7870;52.448;13.270;2022-08-20T14:41:50;18.33;;;16.77;;
15536;SDS011;7870;52.448;13.270;2022-08-20T14:44:17;19.38;;;17.63;;
15536;SDS011;7870;52.448;13.270;2022-08-20T14:46:43;18.75;;;17.13;;